Covedale, Ohio
Current Conditions -  °F | °C
As of 10:34 PM on Monday 22 Dec 2014 (Local Time) from KI69 Reporting Station
Scattered Clouds Scattered Clouds  
Wind Chill: 42°   Ceiling: Unl
Heat Index: 46°   Visibility: 10mi
Dew Point: 39°   Wind: 8mph
Humidity: 76%   Direction: 120°ESE
Pressure: 29.74"   Gusts: NA
Location:  39.1091°N, 84.6112°W
Report Text: KI69 230334Z AUTO 12007KT 10SM SCT120 08/04 A2974 RMK AO1
Loading
Personal Weather Stations






























Interactive Weather Map New forecast layout! Learn more

10-Day Weather Forecast

Advertisements
Track Severe Weather on mobile